Time;durP1;ratioP1;P1;durP2;ratioP2;P2;SDS_P1;SDS_P2;PMS_P1;PMS_P2;Temp;Humidity;BMP_temperature;BMP_pressure;BME280_temperature;BME280_humidity;BME280_pressure;Samples;Min_cycle;Max_cycle;Signal;HPM_P1;HPM_P2
2022/01/14 00:02:13;;;;;;;204.18;59.28;;;5.50;99.90;;;;;;5005747;28;20074;-73
2022/01/14 00:04:39;;;;;;;195.20;58.67;;;5.50;99.90;;;;;;5009171;28;20134;-73
2022/01/14 00:07:05;;;;;;;212.15;59.75;;;5.50;99.90;;;;;;5006714;28;20050;-73
2022/01/14 00:09:32;;;;;;;204.82;57.97;;;5.50;99.90;;;;;;5008124;28;20084;-73
2022/01/14 00:11:59;;;;;;;194.82;60.03;;;5.50;99.90;;;;;;5018005;28;20404;-73
2022/01/14 00:17:06;;;;;;;199.98;58.10;;;5.50;99.90;;;;;;5009290;28;20065;-73
2022/01/14 00:19:32;;;;;;;173.95;59.35;;;5.50;99.90;;;;;;5009083;28;20054;-73
2022/01/14 00:22:03;;;;;;;176.88;58.00;;;5.50;99.90;;;;;;5007293;28;20293;-73
2022/01/14 00:31:38;;;;;;;207.40;60.35;;;5.50;99.90;;;;;;5008191;28;20042;-73
2022/01/14 00:32:57;;;;;;;265.10;62.88;;;5.60;99.90;;;;;;5002112;28;20128;-73
2022/01/14 00:35:23;;;;;;;244.15;62.17;;;5.50;99.90;;;;;;5010594;28;20390;-73
2022/01/14 00:37:49;;;;;;;215.82;59.88;;;5.50;99.90;;;;;;5010404;28;20107;-73
2022/01/14 00:40:14;;;;;;;246.52;61.30;;;5.50;99.90;;;;;;5002239;28;20053;-73
2022/01/14 00:42:40;;;;;;;238.98;59.88;;;5.60;99.90;;;;;;5009177;28;20045;-73
2022/01/14 00:45:07;;;;;;;223.75;60.88;;;5.60;99.90;;;;;;5011598;28;20041;-73
2022/01/14 00:47:37;;;;;;;266.50;61.05;;;5.60;99.90;;;;;;5006774;28;20037;-73
2022/01/14 00:50:05;;;;;;;254.70;59.58;;;5.60;99.90;;;;;;5008658;28;20053;-73
2022/01/14 00:52:30;;;;;;;240.52;61.22;;;5.60;99.90;;;;;;5008712;28;20108;-74
2022/01/14 00:54:56;;;;;;;250.57;60.83;;;5.60;99.90;;;;;;5007434;28;20466;-73
2022/01/14 01:00:18;;;;;;;223.02;59.50;;;5.60;99.90;;;;;;4999675;28;20053;-73
2022/01/14 01:02:43;;;;;;;240.85;62.13;;;5.60;99.90;;;;;;5001806;28;20045;-73
2022/01/14 01:05:12;;;;;;;266.25;62.78;;;5.60;99.90;;;;;;5014310;28;20041;-74
2022/01/14 01:07:40;;;;;;;203.82;59.58;;;5.60;99.90;;;;;;5006697;28;20149;-73
2022/01/14 01:10:06;;;;;;;232.93;61.55;;;5.70;99.90;;;;;;5015964;28;20049;-73
2022/01/14 01:12:46;;;;;;;222.77;60.40;;;5.60;99.90;;;;;;5018878;28;20061;-74
2022/01/14 01:15:15;;;;;;;279.35;62.70;;;5.60;99.90;;;;;;5007579;28;20057;-73
2022/01/14 01:17:41;;;;;;;224.85;60.08;;;5.60;99.90;;;;;;5005646;28;20072;-73
2022/01/14 01:20:17;;;;;;;214.30;60.60;;;5.60;99.90;;;;;;5006368;28;20488;-73
2022/01/14 01:22:53;;;;;;;269.50;64.30;;;5.60;99.90;;;;;;5011053;28;20054;-73
2022/01/14 01:25:20;;;;;;;286.95;62.85;;;5.60;99.90;;;;;;5012294;28;20053;-73
2022/01/14 01:27:48;;;;;;;240.23;60.85;;;5.70;99.90;;;;;;5011591;28;20072;-73
2022/01/14 01:30:16;;;;;;;284.23;62.85;;;5.60;99.90;;;;;;5010080;28;20033;-73
2022/01/14 01:32:48;;;;;;;297.13;64.20;;;5.70;99.90;;;;;;5007712;28;20041;-73
2022/01/14 01:35:15;;;;;;;291.02;65.72;;;5.70;99.90;;;;;;5006398;28;20050;-73
2022/01/14 01:37:41;;;;;;;222.98;60.70;;;5.60;99.90;;;;;;5006797;28;20073;-73
2022/01/14 01:40:07;;;;;;;234.85;62.83;;;5.60;99.90;;;;;;5007027;28;20069;-73
2022/01/14 01:42:34;;;;;;;241.35;62.97;;;5.70;99.90;;;;;;5005380;28;20046;-73
2022/01/14 01:45:00;;;;;;;249.82;64.20;;;5.70;99.90;;;;;;5011848;28;20044;-73
2022/01/14 01:47:27;;;;;;;235.80;61.83;;;5.70;99.90;;;;;;5008440;28;20054;-73
2022/01/14 01:49:53;;;;;;;224.70;61.63;;;5.70;99.90;;;;;;5007625;28;20065;-73
2022/01/14 01:52:19;;;;;;;214.07;60.67;;;5.70;99.90;;;;;;5006187;28;20147;-73
2022/01/14 01:54:45;;;;;;;230.63;61.45;;;5.70;99.90;;;;;;5014771;28;20481;-74
2022/01/14 01:57:10;;;;;;;200.35;59.15;;;5.70;99.90;;;;;;5014122;28;20401;-73
2022/01/14 01:59:36;;;;;;;186.95;58.75;;;5.70;99.90;;;;;;5014207;28;20045;-73
2022/01/14 02:02:02;;;;;;;171.02;57.38;;;5.70;99.90;;;;;;5004309;28;20096;-73
2022/01/14 02:04:29;;;;;;;170.82;56.00;;;5.70;99.90;;;;;;5020981;28;20065;-73
2022/01/14 02:06:56;;;;;;;178.07;57.33;;;5.70;99.90;;;;;;5007098;28;20145;-73
2022/01/14 02:09:23;;;;;;;175.32;56.35;;;5.80;99.90;;;;;;5005850;28;20057;-73
2022/01/14 02:11:49;;;;;;;155.52;55.88;;;5.80;99.90;;;;;;5001194;28;20046;-73
2022/01/14 02:15:27;;;;;;;160.30;54.92;;;5.80;99.90;;;;;;5012256;28;20042;-73
2022/01/14 02:22:52;;;;;;;154.68;53.28;;;5.80;99.90;;;;;;5004765;28;20045;-74
2022/01/14 02:25:32;;;;;;;147.90;53.97;;;5.80;99.90;;;;;;5005004;28;20486;-73
2022/01/14 02:28:01;;;;;;;145.38;52.45;;;5.80;99.90;;;;;;5007231;28;20049;-74
2022/01/14 02:30:28;;;;;;;149.63;53.85;;;5.80;99.90;;;;;;5004458;28;20054;-73
2022/01/14 02:32:54;;;;;;;154.52;53.75;;;5.80;99.90;;;;;;5010729;28;20042;-73
2022/01/14 02:35:20;;;;;;;151.75;55.00;;;5.80;99.90;;;;;;4997248;28;20125;-73
2022/01/14 02:37:46;;;;;;;149.93;53.45;;;5.80;99.90;;;;;;5002509;28;20121;-73
2022/01/14 02:40:12;;;;;;;146.55;53.33;;;5.80;99.90;;;;;;5004540;28;20559;-73
2022/01/14 02:42:38;;;;;;;144.07;52.60;;;5.80;99.90;;;;;;5006879;28;20046;-73
2022/01/14 02:45:07;;;;;;;150.20;53.30;;;5.80;99.90;;;;;;5013137;28;20065;-73
2022/01/14 02:47:33;;;;;;;146.25;53.00;;;5.90;99.90;;;;;;5010082;28;20050;-73
2022/01/14 02:50:00;;;;;;;158.02;53.78;;;5.80;99.90;;;;;;5006912;28;20084;-73
2022/01/14 02:52:42;;;;;;;145.50;53.38;;;5.80;99.90;;;;;;5000656;28;20495;-73
2022/01/14 02:55:18;;;;;;;139.15;54.00;;;5.80;99.90;;;;;;5004781;28;20513;-73
2022/01/14 02:57:49;;;;;;;149.10;52.22;;;5.80;99.90;;;;;;5006139;28;20527;-73
2022/01/14 03:00:16;;;;;;;139.77;53.30;;;5.90;99.90;;;;;;5008314;28;20050;-74
2022/01/14 03:02:44;;;;;;;;;;;5.90;99.90;;;;;;5008193;28;20042;-73
2022/01/14 03:05:10;;;;;;;137.43;51.15;;;5.80;99.90;;;;;;5011078;28;19924;-72
2022/01/14 03:07:37;;;;;;;142.70;51.33;;;5.80;99.90;;;;;;5009892;28;20050;-73
2022/01/14 03:10:04;;;;;;;142.00;51.17;;;5.80;99.90;;;;;;5008253;28;20091;-73
2022/01/14 03:12:30;;;;;;;144.07;51.58;;;5.80;99.90;;;;;;5008778;28;20072;-73
2022/01/14 03:14:56;;;;;;;141.93;52.10;;;5.80;99.90;;;;;;5015013;28;20045;-73
2022/01/14 03:17:22;;;;;;;130.90;51.95;;;5.90;99.90;;;;;;5014793;28;20390;-73
2022/01/14 03:19:48;;;;;;;147.10;52.65;;;5.80;99.90;;;;;;5012818;28;20054;-74
2022/01/14 03:22:29;;;;;;;135.70;52.53;;;5.80;99.90;;;;;;5014968;28;20111;-74
2022/01/14 03:27:21;;;;;;;132.70;51.58;;;5.80;99.90;;;;;;5007441;28;20572;-73
2022/01/14 03:29:47;;;;;;;132.63;51.83;;;5.90;99.90;;;;;;5020073;28;20480;-73
2022/01/14 03:32:13;;;;;;;141.45;51.72;;;5.90;99.90;;;;;;5016639;28;20050;-73
2022/01/14 03:34:39;;;;;;;134.45;49.95;;;5.90;99.90;;;;;;5014506;28;20065;-73
2022/01/14 03:37:05;;;;;;;115.55;50.17;;;5.90;99.90;;;;;;5010200;28;20485;-73
2022/01/14 03:39:31;;;;;;;134.90;50.22;;;5.90;99.90;;;;;;5006946;28;20050;-73
2022/01/14 03:41:56;;;;;;;132.25;51.80;;;5.90;99.90;;;;;;5009977;28;20045;-73
2022/01/14 03:44:22;;;;;;;130.57;50.35;;;5.90;99.90;;;;;;5015362;28;20545;-73
2022/01/14 03:46:48;;;;;;;125.68;50.70;;;5.90;99.90;;;;;;5013202;28;20095;-73
2022/01/14 03:49:14;;;;;;;122.78;50.05;;;5.90;99.90;;;;;;5010574;28;20128;-73
2022/01/14 03:51:41;;;;;;;133.23;52.28;;;5.90;99.90;;;;;;5016707;28;20404;-73
2022/01/14 03:54:07;;;;;;;119.75;49.83;;;5.90;99.90;;;;;;5006826;28;20069;-73
2022/01/14 03:56:33;;;;;;;131.02;50.35;;;5.90;99.90;;;;;;5016406;28;20120;-74
2022/01/14 03:58:59;;;;;;;131.35;50.25;;;5.90;99.90;;;;;;5017374;28;20110;-73
2022/01/14 04:01:24;;;;;;;128.88;51.35;;;5.90;99.90;;;;;;5011245;28;20045;-73
2022/01/14 04:03:50;;;;;;;126.72;50.83;;;5.90;99.90;;;;;;5013488;28;20401;-73
2022/01/14 04:06:17;;;;;;;126.07;50.70;;;5.90;99.90;;;;;;5008344;28;20038;-73
2022/01/14 04:08:43;;;;;;;128.13;49.93;;;5.90;99.90;;;;;;5009323;28;20686;-73
2022/01/14 04:11:09;;;;;;;124.05;50.97;;;5.90;99.90;;;;;;5005754;28;20312;-74
2022/01/14 04:13:51;;;;;;;127.75;51.30;;;5.90;99.90;;;;;;5010350;28;20133;-73
2022/01/14 04:16:18;;;;;;;137.82;51.88;;;5.90;99.90;;;;;;5008766;28;20452;-73
2022/01/14 04:18:43;;;;;;;135.10;51.40;;;5.90;99.90;;;;;;5015009;28;20117;-73
2022/01/14 04:21:09;;;;;;;118.75;49.53;;;5.90;99.90;;;;;;5010017;28;20038;-73
2022/01/14 04:23:35;;;;;;;123.65;49.72;;;5.90;99.90;;;;;;5007533;28;20097;-73
2022/01/14 04:26:02;;;;;;;115.60;50.03;;;5.90;99.90;;;;;;5007530;28;20065;-73
2022/01/14 04:28:30;;;;;;;124.82;50.78;;;5.90;99.90;;;;;;5010756;28;20056;-73
2022/01/14 04:30:56;;;;;;;126.13;50.97;;;5.90;99.90;;;;;;5008213;28;20104;-73
2022/01/14 04:33:24;;;;;;;131.80;51.83;;;5.90;99.90;;;;;;5019570;28;20042;-74
2022/01/14 04:35:50;;;;;;;123.45;48.55;;;5.90;99.90;;;;;;5011852;28;20069;-73
2022/01/14 04:38:16;;;;;;;124.68;49.60;;;5.90;99.90;;;;;;5017287;28;20382;-73
2022/01/14 04:40:42;;;;;;;123.75;49.40;;;5.90;99.90;;;;;;5006124;28;20065;-73
2022/01/14 04:43:08;;;;;;;124.25;49.88;;;5.90;99.90;;;;;;5017364;28;20103;-73
2022/01/14 04:48:05;;;;;;;122.28;49.92;;;5.90;99.90;;;;;;5008914;28;20046;-73
2022/01/14 04:50:31;;;;;;;121.38;48.78;;;5.90;99.90;;;;;;5013762;28;20049;-73
2022/01/14 04:52:56;;;;;;;122.60;49.33;;;5.90;99.90;;;;;;5026372;28;20044;-74
2022/01/14 04:55:24;;;;;;;127.35;50.08;;;6.00;99.90;;;;;;5011211;28;20681;-73
2022/01/14 04:57:50;;;;;;;;;;;5.90;99.90;;;;;;5016931;28;20081;-73
2022/01/14 05:00:18;;;;;;;117.88;49.45;;;5.90;99.90;;;;;;5008957;28;19971;-73
2022/01/14 05:02:44;;;;;;;120.03;49.40;;;5.90;99.90;;;;;;5008464;28;20077;-73
2022/01/14 05:05:11;;;;;;;109.53;47.90;;;5.90;99.90;;;;;;5005683;28;20069;-73
2022/01/14 05:07:37;;;;;;;114.35;48.13;;;5.90;99.90;;;;;;5010754;28;20503;-73
2022/01/14 05:12:33;;;;;;;114.18;49.00;;;5.90;99.90;;;;;;5009241;28;20053;-73
2022/01/14 05:14:58;;;;;;;104.28;47.03;;;5.90;99.90;;;;;;5015801;28;20050;-73
2022/01/14 05:17:24;;;;;;;110.32;48.45;;;5.90;99.90;;;;;;5009264;28;20107;-73
2022/01/14 05:19:50;;;;;;;109.55;47.60;;;5.90;99.90;;;;;;5015336;28;20054;-73
2022/01/14 05:22:17;;;;;;;107.05;45.58;;;5.90;99.90;;;;;;5012255;28;20139;-73
2022/01/14 05:24:43;;;;;;;104.78;46.78;;;5.90;99.90;;;;;;5008715;28;20084;-73
2022/01/14 05:27:09;;;;;;;111.05;46.70;;;5.90;99.90;;;;;;5011486;28;20488;-74
2022/01/14 05:29:34;;;;;;;113.50;47.05;;;5.90;99.90;;;;;;5012946;28;20048;-73
2022/01/14 05:32:05;;;;;;;100.55;47.80;;;5.90;99.90;;;;;;5007264;28;20057;-73
2022/01/14 05:34:32;;;;;;;102.55;46.47;;;5.90;99.90;;;;;;5014283;28;20057;-74
2022/01/14 05:36:58;;;;;;;99.50;46.58;;;5.90;99.90;;;;;;5019640;28;20045;-73
2022/01/14 05:39:23;;;;;;;102.43;46.47;;;5.90;99.90;;;;;;5012637;28;20356;-73
2022/01/14 05:41:50;;;;;;;101.10;44.97;;;5.90;99.90;;;;;;5017255;28;20073;-74
2022/01/14 05:44:16;;;;;;;93.10;43.92;;;5.90;99.90;;;;;;5009193;28;20533;-73
2022/01/14 05:46:41;;;;;;;98.32;45.45;;;5.90;99.90;;;;;;4999823;28;20040;-73
2022/01/14 05:49:07;;;;;;;104.95;45.40;;;5.90;99.90;;;;;;5018699;28;20037;-73
2022/01/14 05:51:33;;;;;;;107.75;45.38;;;5.90;99.90;;;;;;5010675;28;20045;-73
2022/01/14 05:53:59;;;;;;;108.22;46.35;;;5.90;99.90;;;;;;5006040;28;20133;-74
2022/01/14 05:56:24;;;;;;;102.20;42.30;;;5.90;99.90;;;;;;5010753;28;20527;-73
2022/01/14 05:58:50;;;;;;;103.90;43.15;;;5.90;99.90;;;;;;5017787;28;20050;-73
2022/01/14 06:01:15;;;;;;;98.28;42.35;;;5.90;99.90;;;;;;5007866;28;21015;-73
2022/01/14 06:03:41;;;;;;;99.35;42.95;;;5.80;99.90;;;;;;5009001;28;20493;-74
2022/01/14 06:06:07;;;;;;;95.63;42.33;;;5.80;99.90;;;;;;5007031;28;20057;-73
2022/01/14 06:08:32;;;;;;;95.78;43.10;;;5.80;99.90;;;;;;5006519;28;20520;-73
2022/01/14 06:10:58;;;;;;;91.20;42.92;;;5.80;99.90;;;;;;5008042;28;20531;-73
2022/01/14 06:13:23;;;;;;;92.72;42.33;;;5.80;99.90;;;;;;5013035;28;20092;-73
2022/01/14 06:15:49;;;;;;;89.18;41.55;;;5.80;99.90;;;;;;5007772;28;20053;-73
2022/01/14 06:18:15;;;;;;;89.13;41.95;;;5.80;99.90;;;;;;5007819;28;20042;-74
2022/01/14 06:20:40;;;;;;;87.25;42.08;;;5.80;99.90;;;;;;5007533;28;20133;-73
2022/01/14 06:23:06;;;;;;;97.75;43.75;;;5.80;99.90;;;;;;5002282;28;20053;-73
2022/01/14 06:25:31;;;;;;;99.15;43.38;;;5.80;99.90;;;;;;5009139;28;20041;-73
2022/01/14 06:27:57;;;;;;;90.75;42.70;;;5.80;99.90;;;;;;4996316;28;20379;-73
2022/01/14 06:30:23;;;;;;;95.93;44.67;;;5.80;99.90;;;;;;5001180;28;20054;-73
2022/01/14 06:32:52;;;;;;;85.75;42.40;;;5.80;99.90;;;;;;5012059;28;20045;-73
2022/01/14 06:35:18;;;;;;;90.72;42.83;;;5.80;99.90;;;;;;5011051;28;20049;-73
2022/01/14 06:37:44;;;;;;;87.57;43.35;;;5.80;99.90;;;;;;5011091;28;20052;-74
2022/01/14 06:40:10;;;;;;;83.85;41.38;;;5.80;99.90;;;;;;5011700;28;20050;-73
2022/01/14 06:42:37;;;;;;;82.75;41.72;;;5.80;99.90;;;;;;5024563;28;20045;-73
2022/01/14 06:45:06;;;;;;;81.18;41.47;;;5.90;99.90;;;;;;5004149;28;20058;-74
2022/01/14 06:47:32;;;;;;;82.43;41.42;;;5.90;99.90;;;;;;5012026;28;20046;-73
2022/01/14 06:49:58;;;;;;;80.15;41.72;;;5.90;99.90;;;;;;5021443;28;20049;-73
2022/01/14 06:52:24;;;;;;;78.85;42.05;;;5.90;99.90;;;;;;5002525;28;20053;-73
2022/01/14 06:54:50;;;;;;;82.50;42.78;;;5.90;99.90;;;;;;5006237;28;20054;-73
2022/01/14 06:57:16;;;;;;;83.07;42.45;;;5.90;99.90;;;;;;5008980;28;20400;-75
2022/01/14 06:59:42;;;;;;;82.32;40.70;;;5.90;99.90;;;;;;5009447;28;20117;-72
2022/01/14 07:02:09;;;;;;;83.03;39.83;;;5.90;99.90;;;;;;5004565;28;20034;-73
2022/01/14 07:04:35;;;;;;;89.13;48.17;;;5.90;99.90;;;;;;4993051;28;20080;-73
2022/01/14 07:07:01;;;;;;;84.97;44.45;;;5.90;99.90;;;;;;5010653;28;20038;-73
2022/01/14 07:09:29;;;;;;;74.60;41.65;;;5.90;99.90;;;;;;5024999;28;20042;-74
2022/01/14 07:11:58;;;;;;;82.13;42.22;;;5.90;99.90;;;;;;5009546;28;20409;-76
2022/01/14 07:14:23;;;;;;;80.07;42.15;;;5.90;99.90;;;;;;5024348;28;20097;-74
2022/01/14 07:16:49;;;;;;;74.57;40.47;;;5.90;99.90;;;;;;5010474;28;20058;-74
2022/01/14 07:19:17;;;;;;;79.35;41.63;;;5.90;99.90;;;;;;5018121;28;20180;-74
2022/01/14 07:21:43;;;;;;;74.63;40.15;;;5.90;99.90;;;;;;5014447;28;20136;-74
2022/01/14 07:24:10;;;;;;;67.65;38.78;;;5.90;99.90;;;;;;5022575;28;20497;-74
2022/01/14 07:26:36;;;;;;;69.20;39.60;;;5.90;99.90;;;;;;5013451;28;20076;-74
2022/01/14 07:29:02;;;;;;;76.40;41.05;;;5.90;99.90;;;;;;5007971;28;20384;-74
2022/01/14 07:31:28;;;;;;;68.82;39.47;;;5.90;99.90;;;;;;5007107;28;20042;-74
2022/01/14 07:33:54;;;;;;;66.30;37.83;;;5.90;99.90;;;;;;5027719;28;20056;-73
2022/01/14 07:36:20;;;;;;;63.42;37.22;;;5.90;99.90;;;;;;5022969;28;20058;-74
2022/01/14 07:38:46;;;;;;;69.82;38.60;;;5.90;99.90;;;;;;5012520;28;20077;-73
2022/01/14 07:41:11;;;;;;;67.53;38.65;;;5.90;99.90;;;;;;5010035;28;20092;-74
2022/01/14 07:43:37;;;;;;;62.58;36.78;;;5.90;99.90;;;;;;5016183;28;20389;-74
2022/01/14 07:46:05;;;;;;;65.35;39.03;;;5.90;99.90;;;;;;5007583;28;20041;-74
2022/01/14 07:48:31;;;;;;;69.85;38.45;;;5.90;99.90;;;;;;5009237;28;20053;-74
2022/01/14 07:50:57;;;;;;;69.53;38.45;;;5.90;99.90;;;;;;4996050;28;20069;-74
2022/01/14 07:53:23;;;;;;;65.00;38.22;;;6.00;99.90;;;;;;5010894;28;20145;-74
2022/01/14 07:55:48;;;;;;;68.38;39.78;;;5.90;99.90;;;;;;5015614;28;20053;-74
2022/01/14 07:58:15;;;;;;;68.25;39.05;;;5.90;99.90;;;;;;5012351;28;20052;-74
2022/01/14 08:00:42;;;;;;;62.92;38.83;;;5.90;99.90;;;;;;5015290;28;20041;-74
2022/01/14 08:03:07;;;;;;;64.85;38.40;;;5.90;99.90;;;;;;5009776;28;20049;-73
2022/01/14 08:05:33;;;;;;;66.93;37.92;;;6.00;99.90;;;;;;5007853;28;20576;-74
2022/01/14 08:08:04;;;;;;;60.25;37.35;;;5.90;99.90;;;;;;5006766;28;20050;-73
2022/01/14 08:10:30;;;;;;;63.00;36.97;;;5.90;99.90;;;;;;5016735;28;20057;-74
2022/01/14 08:12:56;;;;;;;58.95;35.97;;;6.00;99.90;;;;;;5006112;28;20125;-75
2022/01/14 08:15:23;;;;;;;67.68;37.58;;;6.00;99.90;;;;;;5009202;28;20136;-74
2022/01/14 08:17:49;;;;;;;59.15;36.70;;;6.00;99.90;;;;;;5008251;28;20044;-74
2022/01/14 08:20:14;;;;;;;68.07;36.75;;;6.00;99.90;;;;;;5009055;28;20041;-74
2022/01/14 08:22:40;;;;;;;61.78;36.40;;;6.00;99.90;;;;;;5004415;28;20096;-74
2022/01/14 08:25:07;;;;;;;59.28;37.80;;;6.00;99.90;;;;;;5009130;28;20073;-74
2022/01/14 08:27:32;;;;;;;61.85;37.03;;;6.00;99.90;;;;;;5012435;28;20128;-74
2022/01/14 08:29:58;;;;;;;58.95;36.40;;;6.00;99.90;;;;;;5012528;28;20624;-74
2022/01/14 08:32:24;;;;;;;57.33;34.70;;;6.00;99.90;;;;;;5007049;28;20046;-73
2022/01/14 08:34:49;;;;;;;59.15;35.10;;;6.10;99.90;;;;;;5022359;28;20073;-73
2022/01/14 08:37:15;;;;;;;58.53;35.03;;;6.00;99.90;;;;;;5009168;28;20129;-73
2022/01/14 08:39:41;;;;;;;57.08;35.60;;;6.10;99.90;;;;;;5010837;28;20046;-72
2022/01/14 08:42:09;;;;;;;55.15;34.80;;;6.10;99.90;;;;;;5008773;28;20038;-73
2022/01/14 08:44:36;;;;;;;50.60;33.67;;;6.10;99.90;;;;;;5010294;28;20050;-72
2022/01/14 08:47:05;;;;;;;54.67;33.53;;;6.10;99.90;;;;;;5008504;28;20195;-72
2022/01/14 08:49:31;;;;;;;56.28;34.90;;;6.10;99.90;;;;;;5009460;28;20493;-73
2022/01/14 08:51:57;;;;;;;53.10;34.88;;;6.10;99.90;;;;;;5008782;28;20081;-72
2022/01/14 08:54:22;;;;;;;58.33;34.78;;;6.20;99.90;;;;;;5009042;28;20038;-73
2022/01/14 08:56:48;;;;;;;51.67;34.22;;;6.20;99.90;;;;;;5008060;28;20148;-74
2022/01/14 08:59:17;;;;;;;50.30;35.00;;;6.20;99.90;;;;;;5010196;28;20061;-73
2022/01/14 09:01:43;;;;;;;49.50;33.53;;;6.20;99.90;;;;;;5007971;28;20049;-72
2022/01/14 09:04:09;;;;;;;51.45;33.83;;;6.20;99.90;;;;;;5009037;28;20099;-72
2022/01/14 09:06:35;;;;;;;49.90;32.42;;;6.20;99.90;;;;;;5008949;28;20041;-73
2022/01/14 09:09:01;;;;;;;49.53;33.00;;;6.20;99.90;;;;;;5013681;28;20400;-73
2022/01/14 09:11:26;;;;;;;47.53;32.28;;;6.30;99.90;;;;;;5008011;28;20057;-73
2022/01/14 09:13:52;;;;;;;52.70;33.65;;;6.30;99.90;;;;;;5008538;28;20057;-73
2022/01/14 09:16:20;;;;;;;51.97;33.92;;;6.30;99.90;;;;;;5008378;28;20120;-74
2022/01/14 09:18:47;;;;;;;54.15;34.50;;;6.30;99.90;;;;;;5001083;28;20058;-73
2022/01/14 09:21:12;;;;;;;52.33;33.93;;;6.30;99.90;;;;;;4979050;28;20667;-73
2022/01/14 09:23:38;;;;;;;51.85;34.58;;;6.30;99.90;;;;;;4988278;28;20293;-73
2022/01/14 09:26:04;;;;;;;47.03;34.22;;;6.40;99.90;;;;;;4982836;28;20142;-71
2022/01/14 09:28:30;;;;;;;50.60;33.28;;;6.30;99.90;;;;;;4964565;28;20050;-72
2022/01/14 09:30:57;;;;;;;54.25;33.65;;;6.40;99.90;;;;;;4964573;28;20397;-72
2022/01/14 09:33:22;;;;;;;51.35;34.67;;;6.40;99.90;;;;;;4977521;28;20132;-72
2022/01/14 09:35:48;;;;;;;47.95;32.40;;;6.40;99.90;;;;;;4997843;28;20485;-72
2022/01/14 09:38:14;;;;;;;48.47;33.20;;;6.40;99.90;;;;;;4986482;28;20042;-74
2022/01/14 09:40:43;;;;;;;52.40;33.33;;;6.40;99.90;;;;;;4970103;28;20394;-72
2022/01/14 09:43:13;;;;;;;43.28;30.70;;;6.40;99.90;;;;;;4975484;28;20058;-71
2022/01/14 09:45:39;;;;;;;48.67;31.85;;;6.50;99.90;;;;;;4971242;28;20076;-71
2022/01/14 09:48:05;;;;;;;51.77;32.10;;;6.50;99.90;;;;;;4989336;28;20034;-71
2022/01/14 09:50:30;;;;;;;52.15;31.25;;;6.50;99.90;;;;;;4989108;28;20034;-71
2022/01/14 09:52:56;;;;;;;44.58;30.25;;;6.50;99.90;;;;;;4971088;28;20100;-71
2022/01/14 09:55:26;;;;;;;53.50;31.13;;;6.50;99.90;;;;;;4972487;28;20048;-71
2022/01/14 09:57:54;;;;;;;45.63;29.10;;;6.50;99.90;;;;;;4970212;28;20052;-71
2022/01/14 10:00:20;;;;;;;41.70;28.05;;;6.50;99.90;;;;;;4991845;28;20604;-71
2022/01/14 10:02:47;;;;;;;43.75;29.58;;;6.60;99.90;;;;;;4971240;28;20054;-71
2022/01/14 10:05:35;;;;;;;48.35;28.52;;;6.60;99.90;;;;;;4989693;28;20038;-72
2022/01/14 10:08:16;;;;;;;45.55;28.23;;;6.70;99.90;;;;;;4970021;28;20042;-73
2022/01/14 10:10:48;;;;;;;40.78;28.55;;;6.70;99.90;;;;;;4971580;28;20043;-73
2022/01/14 10:13:17;;;;;;;48.08;29.88;;;6.70;99.90;;;;;;4987665;28;20122;-72
2022/01/14 10:15:44;;;;;;;43.92;28.60;;;6.70;99.90;;;;;;4970734;28;20498;-72
2022/01/14 10:18:12;;;;;;;45.67;28.45;;;6.70;99.90;;;;;;5002841;28;20110;-73
2022/01/14 10:20:38;;;;;;;49.10;29.30;;;6.70;99.90;;;;;;5025944;28;20054;-73
2022/01/14 10:23:04;;;;;;;45.97;28.20;;;6.80;99.90;;;;;;5006278;28;20068;-73
2022/01/14 10:25:29;;;;;;;38.33;28.17;;;6.80;99.90;;;;;;5007473;28;20160;-72
2022/01/14 10:27:55;;;;;;;42.63;29.10;;;6.80;99.90;;;;;;5007428;28;20134;-73
2022/01/14 10:30:31;;;;;;;47.35;29.15;;;6.80;99.90;;;;;;5007269;28;20052;-73
2022/01/14 10:33:02;;;;;;;42.67;29.15;;;6.80;99.90;;;;;;5006373;28;20046;-74
2022/01/14 10:35:31;;;;;;;44.28;29.08;;;6.90;99.90;;;;;;5006617;28;21602;-73
2022/01/14 10:38:02;;;;;;;48.78;30.13;;;6.90;99.90;;;;;;5007043;28;20548;-73
2022/01/14 10:40:30;;;;;;;45.13;29.58;;;6.90;99.90;;;;;;4987826;28;20386;-74
2022/01/14 10:43:08;;;;;;;40.50;27.17;;;6.90;99.90;;;;;;4997988;28;20754;-73
2022/01/14 10:45:33;;;;;;;;;;;6.90;99.90;;;;;;5008471;28;20041;-73
2022/01/14 10:48:04;;;;;;;45.10;27.65;;;6.90;99.90;;;;;;5005892;28;19929;-73
2022/01/14 10:50:34;;;;;;;46.38;28.48;;;6.90;99.90;;;;;;5007111;28;20527;-73
2022/01/14 10:53:01;;;;;;;38.35;26.85;;;7.00;99.90;;;;;;5006390;28;20046;-73
2022/01/14 10:55:40;;;;;;;40.40;28.40;;;7.00;99.90;;;;;;5008427;28;20037;-73
2022/01/14 10:58:15;;;;;;;40.00;27.27;;;7.00;99.90;;;;;;5006453;28;20056;-73
2022/01/14 11:00:47;;;;;;;40.92;28.02;;;7.00;99.90;;;;;;5006228;28;20069;-73
2022/01/14 11:03:14;;;;;;;41.72;27.83;;;7.00;99.90;;;;;;5005422;28;20084;-72
2022/01/14 11:05:39;;;;;;;41.80;27.55;;;7.10;99.90;;;;;;5007701;28;20080;-71
2022/01/14 11:08:06;;;;;;;39.80;28.20;;;7.10;99.90;;;;;;5008082;28;20077;-72
2022/01/14 11:10:38;;;;;;;38.88;26.55;;;7.10;99.90;;;;;;5007703;28;20046;-70
2022/01/14 11:13:11;;;;;;;43.35;26.52;;;7.10;99.90;;;;;;5007906;28;20671;-70
2022/01/14 11:15:37;;;;;;;37.75;25.00;;;7.20;99.90;;;;;;5006576;28;20657;-71
2022/01/14 11:18:05;;;;;;;35.40;25.05;;;7.20;99.90;;;;;;5012525;28;20092;-71
2022/01/14 11:20:37;;;;;;;37.53;24.33;;;7.10;99.90;;;;;;5011299;28;20060;-73
2022/01/14 11:23:15;;;;;;;35.75;24.17;;;7.10;99.90;;;;;;5018104;28;20046;-73
2022/01/14 11:26:02;;;;;;;34.30;23.75;;;7.20;99.90;;;;;;5008960;28;20052;-73
2022/01/14 11:28:34;;;;;;;31.70;21.15;;;7.20;99.90;;;;;;5007418;28;20042;-73
2022/01/14 11:31:00;;;;;;;27.27;18.00;;;7.20;99.90;;;;;;5008128;28;20056;-77
2022/01/14 11:33:41;;;;;;;28.48;18.27;;;7.20;99.90;;;;;;5010241;28;20064;-73
2022/01/14 11:36:07;;;;;;;26.20;16.05;;;7.20;99.90;;;;;;5010217;28;20037;-72
2022/01/14 11:38:46;;;;;;;25.27;14.65;;;7.20;99.90;;;;;;5010385;28;20485;-74
2022/01/14 11:41:15;;;;;;;23.85;13.35;;;7.20;99.90;;;;;;5010077;28;20045;-73
2022/01/14 11:43:42;;;;;;;26.73;14.80;;;7.20;99.90;;;;;;5009161;28;20050;-75
2022/01/14 11:46:11;;;;;;;25.40;14.70;;;7.20;99.90;;;;;;5009939;28;20045;-73
2022/01/14 11:48:44;;;;;;;27.73;15.60;;;7.20;99.90;;;;;;5009306;28;20062;-74
2022/01/14 11:51:14;;;;;;;22.45;15.63;;;7.20;99.90;;;;;;5009225;28;20248;-72
2022/01/14 11:53:49;;;;;;;21.20;13.35;;;7.20;99.90;;;;;;5009038;28;20120;-76
2022/01/14 11:56:30;;;;;;;25.10;13.38;;;7.30;99.90;;;;;;5008677;28;20053;-73
2022/01/14 11:59:18;;;;;;;23.73;13.00;;;7.30;99.90;;;;;;5007737;28;20424;-73
2022/01/14 12:01:44;;;;;;;27.42;14.00;;;7.30;99.90;;;;;;5001078;28;20041;-73
2022/01/14 12:04:10;;;;;;;25.20;14.30;;;7.30;99.90;;;;;;5008679;28;20049;-74
2022/01/14 12:06:51;;;;;;;26.85;12.30;;;7.30;99.90;;;;;;5008095;28;20672;-74
2022/01/14 12:09:24;;;;;;;24.15;12.63;;;7.30;99.90;;;;;;5009790;28;20046;-74
2022/01/14 12:12:22;;;;;;;28.90;12.63;;;7.30;99.90;;;;;;5008730;28;20397;-74
2022/01/14 12:14:56;;;;;;;22.40;10.73;;;7.40;99.90;;;;;;4990455;28;20050;-74
2022/01/14 12:17:42;;;;;;;21.50;11.27;;;7.30;99.90;;;;;;5008394;28;20511;-74
2022/01/14 12:20:12;;;;;;;20.75;10.90;;;7.40;99.90;;;;;;5009437;28;20042;-73
2022/01/14 12:22:39;;;;;;;19.67;10.95;;;7.40;99.90;;;;;;5009322;28;20096;-73
2022/01/14 12:25:06;;;;;;;22.15;11.00;;;7.40;99.90;;;;;;5009545;28;20085;-72
2022/01/14 12:27:45;;;;;;;24.60;11.48;;;7.40;99.90;;;;;;5024891;28;20057;-73
2022/01/14 12:30:15;;;;;;;24.48;10.85;;;7.50;99.90;;;;;;5009530;28;20462;-73
2022/01/14 12:32:42;;;;;;;18.88;10.48;;;7.50;99.90;;;;;;5007064;28;20068;-73
2022/01/14 12:35:13;;;;;;;17.67;10.30;;;7.50;99.90;;;;;;4998009;28;20481;-73
2022/01/14 12:37:51;;;;;;;18.23;9.65;;;7.50;99.90;;;;;;5009021;28;20053;-73
2022/01/14 12:40:18;;;;;;;;;;;7.40;99.90;;;;;;5010308;28;20062;-72
2022/01/14 12:42:45;;;;;;;;;;;7.50;99.90;;;;;;5006383;28;20387;-73
2022/01/14 12:45:30;;;;;;;18.25;10.45;;;7.50;99.90;;;;;;5008222;28;19932;-73
2022/01/14 12:48:32;;;;;;;22.95;11.65;;;7.50;99.90;;;;;;5007288;28;20053;-74
2022/01/14 12:51:10;;;;;;;24.63;11.57;;;7.50;99.90;;;;;;5007977;28;20054;-75
2022/01/14 12:53:36;;;;;;;22.90;10.93;;;7.50;99.90;;;;;;5007354;28;20061;-72
2022/01/14 12:56:13;;;;;;;28.05;12.50;;;7.50;99.90;;;;;;5007692;28;20049;-72
2022/01/14 12:58:52;;;;;;;26.25;14.52;;;7.50;99.90;;;;;;5002216;28;20104;-72
2022/01/14 13:01:18;;;;;;;20.80;10.98;;;7.60;99.90;;;;;;5007215;28;20053;-72
2022/01/14 13:03:44;;;;;;;28.70;15.60;;;7.50;99.90;;;;;;5007459;28;20535;-71